Time;durP1;ratioP1;P1;durP2;ratioP2;P2;SDS_P1;SDS_P2;PMS_P1;PMS_P2;Temp;Humidity;BMP_temperature;BMP_pressure;BME280_temperature;BME280_humidity;BME280_pressure;Samples;Min_cycle;Max_cycle;Signal;HPM_P1;HPM_P2
2022/02/04 00:04:28;;;;;;;60.95;32.25;;;;;;;-145.63;100.00;61273.97;4984533;28;20033;-59
2022/02/04 00:07:08;;;;;;;62.38;32.85;;;;;;;-145.63;100.00;61273.97;4984588;28;20030;-60
2022/02/04 00:23:17;;;;;;;60.22;33.50;;;;;;;-145.63;100.00;61273.97;4973842;28;20045;-60
2022/02/04 00:28:46;;;;;;;67.13;34.40;;;;;;;-145.63;100.00;61273.97;4984389;28;20031;-59
2022/02/04 00:33:43;;;;;;;64.32;35.13;;;;;;;-145.63;100.00;61273.97;4981835;28;20030;-59
2022/02/04 00:36:24;;;;;;;66.25;34.40;;;;;;;-145.63;100.00;61273.97;4983984;28;20110;-59
2022/02/04 00:38:54;;;;;;;69.78;36.17;;;;;;;-145.63;100.00;61273.97;4984196;28;20078;-59
2022/02/04 00:41:23;;;;;;;62.30;33.88;;;;;;;-145.63;100.00;61273.97;4984122;28;20037;-59
2022/02/04 00:43:52;;;;;;;65.85;35.85;;;;;;;-145.63;100.00;61273.97;4984149;28;20076;-59
2022/02/04 00:46:57;;;;;;;66.85;33.97;;;;;;;-145.63;100.00;61273.97;4984051;28;20041;-59
2022/02/04 00:51:40;;;;;;;58.88;33.33;;;;;;;-145.63;100.00;61273.97;4983846;28;20026;-59
2022/02/04 00:56:43;;;;;;;66.07;35.97;;;;;;;-145.63;100.00;61273.97;4983722;28;20066;-59
2022/02/04 01:13:20;;;;;;;55.50;30.02;;;;;;;-145.63;100.00;61273.97;4983778;28;20026;-60
2022/02/04 01:26:36;;;;;;;58.08;31.23;;;;;;;-145.63;100.00;61273.97;4983621;28;20031;-60
2022/02/04 01:29:03;;;;;;;57.20;30.67;;;;;;;-145.63;100.00;61273.97;4983486;28;20031;-60
2022/02/04 01:31:28;;;;;;;55.60;29.50;;;;;;;-145.63;100.00;61273.97;4998679;28;20287;-60
2022/02/04 01:33:54;;;;;;;53.58;31.50;;;;;;;-145.63;100.00;61273.97;4982533;28;20026;-60
2022/02/04 01:36:21;;;;;;;57.30;31.08;;;;;;;-145.63;100.00;61273.97;4983579;28;20043;-60
2022/02/04 01:38:46;;;;;;;57.83;31.00;;;;;;;-145.63;100.00;61273.97;4983514;28;20027;-59
2022/02/04 01:41:13;;;;;;;62.97;33.53;;;;;;;-145.63;100.00;61273.97;4983448;28;20038;-59
2022/02/04 01:43:39;;;;;;;56.72;30.95;;;;;;;-145.63;100.00;61273.97;4983305;28;20030;-59
2022/02/04 01:46:07;;;;;;;57.03;31.08;;;;;;;-145.63;100.00;61273.97;4983234;28;20030;-59
2022/02/04 01:48:34;;;;;;;59.13;31.85;;;;;;;-145.63;100.00;61273.97;4983458;28;20054;-60
2022/02/04 01:51:02;;;;;;;59.88;31.33;;;;;;;-145.63;100.00;61273.97;4983515;28;20093;-60
2022/02/04 01:53:28;;;;;;;62.10;32.78;;;;;;;-145.63;100.00;61273.97;4983291;28;20143;-60
2022/02/04 01:55:56;;;;;;;59.42;31.33;;;;;;;-145.63;100.00;61273.97;4983347;28;20026;-59
2022/02/04 01:58:22;;;;;;;58.53;33.40;;;;;;;-145.63;100.00;61273.97;4981922;28;20031;-59
2022/02/04 02:00:47;;;;;;;58.45;30.58;;;;;;;-145.63;100.00;61273.97;5014629;28;20219;-59
2022/02/04 02:03:13;;;;;;;60.83;33.70;;;;;;;-145.63;100.00;61273.97;4983066;28;20030;-59
2022/02/04 02:05:38;;;;;;;60.97;33.15;;;;;;;-145.63;100.00;61273.97;4983231;28;20047;-59
2022/02/04 02:08:13;;;;;;;63.50;34.55;;;;;;;-145.63;100.00;61273.97;4983334;28;20358;-60
2022/02/04 02:10:39;;;;;;;57.08;32.78;;;;;;;-145.63;100.00;61273.97;4982967;28;20258;-60
2022/02/04 02:13:19;;;;;;;59.30;32.15;;;;;;;-145.63;100.00;61273.97;4985178;28;20058;-60
2022/02/04 02:51:41;;;;;;;59.55;32.35;;;;;;;-145.63;100.00;61273.97;4985377;28;20069;-60
2022/02/04 02:59:25;;;;;;;66.22;34.53;;;;;;;-145.63;100.00;61273.97;4984332;28;19913;-59
2022/02/04 03:01:52;;;;;;;71.20;36.35;;;;;;;-145.63;100.00;61273.97;4984571;28;20037;-60
2022/02/04 03:04:18;;;;;;;61.17;33.75;;;;;;;-145.63;100.00;61273.97;4984255;28;20121;-60
2022/02/04 03:06:46;;;;;;;58.53;32.58;;;;;;;-145.63;100.00;61273.97;4984835;28;20030;-60
2022/02/04 03:09:14;;;;;;;62.42;34.20;;;;;;;-145.63;100.00;61273.97;4984333;28;20038;-61
2022/02/04 03:11:39;;;;;;;63.40;34.20;;;;;;;-145.63;100.00;61273.97;4985748;28;20039;-60
2022/02/04 03:14:05;;;;;;;60.22;34.70;;;;;;;-145.63;100.00;61273.97;4985630;28;20038;-60
2022/02/04 03:16:32;;;;;;;71.25;34.92;;;;;;;-145.63;100.00;61273.97;4965024;28;20035;-60
2022/02/04 03:18:59;;;;;;;65.07;34.53;;;;;;;-145.63;100.00;61273.97;4977567;28;20279;-60
2022/02/04 03:22:04;;;;;;;62.53;34.17;;;;;;;-145.63;100.00;61273.97;4983988;28;20410;-60
2022/02/04 03:24:21;;;;;;;57.20;31.65;;;;;;;-145.63;100.00;61273.97;4987120;28;20398;-60
2022/02/04 03:29:15;;;;;;;62.92;33.72;;;;;;;-145.63;100.00;61273.97;4984114;28;20200;-60
2022/02/04 03:31:47;;;;;;;72.18;36.50;;;;;;;-145.63;100.00;61273.97;4985373;28;20359;-60
2022/02/04 03:34:12;;;;;;;59.40;34.50;;;;;;;-145.63;100.00;61273.97;4975818;28;20038;-60
2022/02/04 03:36:38;;;;;;;66.28;34.83;;;;;;;-145.63;100.00;61273.97;4985318;28;20041;-60
2022/02/04 03:39:04;;;;;;;70.35;37.15;;;;;;;-145.63;100.00;61273.97;4968038;28;20138;-61
2022/02/04 03:41:29;;;;;;;76.05;37.42;;;;;;;-145.63;100.00;61273.97;4984946;28;20041;-60
2022/02/04 03:43:55;;;;;;;69.72;37.08;;;;;;;-145.63;100.00;61273.97;4984767;28;20110;-60
2022/02/04 03:46:21;;;;;;;67.93;36.55;;;;;;;-145.63;100.00;61273.97;4984898;28;20322;-60
2022/02/04 03:48:46;;;;;;;67.25;35.25;;;;;;;-145.63;100.00;61273.97;4984957;28;20318;-60
2022/02/04 03:51:12;;;;;;;70.25;37.85;;;;;;;-145.63;100.00;61273.97;4984754;28;20259;-60
2022/02/04 03:53:37;;;;;;;71.80;37.33;;;;;;;-145.63;100.00;61273.97;4984871;28;20034;-60
2022/02/04 03:56:03;;;;;;;65.88;34.78;;;;;;;-145.63;100.00;61273.97;4984844;28;20318;-59
2022/02/04 03:58:31;;;;;;;74.78;38.78;;;;;;;-145.63;100.00;61273.97;4983370;28;20030;-60
2022/02/04 04:00:58;;;;;;;74.18;38.97;;;;;;;-145.63;100.00;61273.97;4984905;28;20034;-60
2022/02/04 04:03:23;;;;;;;77.47;40.10;;;;;;;-145.63;100.00;61273.97;4983997;28;20033;-60
2022/02/04 04:05:50;;;;;;;75.20;39.72;;;;;;;-145.63;100.00;61273.97;4985083;28;20050;-60
2022/02/04 04:08:18;;;;;;;75.72;39.30;;;;;;;-145.63;100.00;61273.97;4984814;28;20293;-60
2022/02/04 04:10:44;;;;;;;76.35;40.38;;;;;;;-145.63;100.00;61273.97;4984591;28;20315;-60
2022/02/04 04:13:11;;;;;;;67.18;36.65;;;;;;;-145.63;100.00;61273.97;4983353;28;20038;-60
2022/02/04 04:15:37;;;;;;;70.63;38.20;;;;;;;-145.63;100.00;61273.97;4984589;28;20331;-60
2022/02/04 04:18:03;;;;;;;72.65;36.92;;;;;;;-145.63;100.00;61273.97;4984433;28;20037;-60
2022/02/04 04:20:30;;;;;;;75.53;38.03;;;;;;;-145.63;100.00;61273.97;4983766;28;20267;-59
2022/02/04 04:22:57;;;;;;;73.13;37.58;;;;;;;-145.63;100.00;61273.97;4984005;28;20042;-59
2022/02/04 04:25:23;;;;;;;68.40;36.78;;;;;;;-145.63;100.00;61273.97;4983919;28;20030;-60
2022/02/04 04:27:50;;;;;;;70.57;36.53;;;;;;;-145.63;100.00;61273.97;4984221;28;20046;-60
2022/02/04 04:30:18;;;;;;;72.10;37.35;;;;;;;-145.63;100.00;61273.97;4983990;28;20027;-60
2022/02/04 04:32:44;;;;;;;68.03;34.53;;;;;;;-145.63;100.00;61273.97;4982489;28;20025;-60
2022/02/04 04:35:12;;;;;;;66.97;35.20;;;;;;;-145.63;100.00;61273.97;4983090;28;20069;-60
2022/02/04 04:38:05;;;;;;;63.60;32.78;;;;;;;-145.63;100.00;61273.97;4981188;28;20233;-60
2022/02/04 05:29:19;;;;;;;58.28;30.85;;;;;;;-145.63;100.00;61273.97;4983734;28;20049;-63
2022/02/04 05:31:45;;;;;;;58.30;30.65;;;;;;;-145.63;100.00;61273.97;4982747;28;20337;-62
2022/02/04 05:34:14;;;;;;;60.00;31.13;;;;;;;-145.63;100.00;61273.97;4981983;28;20027;-61
2022/02/04 05:36:43;;;;;;;55.78;30.02;;;;;;;-145.63;100.00;61273.97;4982202;28;20058;-62
2022/02/04 05:39:11;;;;;;;50.47;29.83;;;;;;;-145.63;100.00;61273.97;4982380;28;20521;-62
2022/02/04 05:41:40;;;;;;;52.53;29.38;;;;;;;-145.63;100.00;61273.97;4982194;28;20123;-60
2022/02/04 05:44:10;;;;;;;54.97;29.38;;;;;;;-145.63;100.00;61273.97;4982168;28;20090;-60
2022/02/04 05:46:49;;;;;;;56.25;29.02;;;;;;;-145.63;100.00;61273.97;4982732;28;20026;-60
2022/02/04 05:49:18;;;;;;;48.83;27.40;;;;;;;-145.63;100.00;61273.97;5002418;28;20102;-60
2022/02/04 05:52:04;;;;;;;48.13;27.10;;;;;;;-145.63;100.00;61273.97;4987321;28;20043;-59
2022/02/04 05:54:48;;;;;;;45.85;26.80;;;;;;;-145.63;100.00;61273.97;4987233;28;20046;-61
2022/02/04 05:57:20;;;;;;;51.60;26.23;;;;;;;-145.63;100.00;61273.97;4987098;28;20046;-61
2022/02/04 06:02:53;;;;;;;42.45;24.30;;;;;;;-145.63;100.00;61273.97;4987091;28;20046;-61
2022/02/04 06:11:24;;;;;;;49.60;24.63;;;;;;;-145.63;100.00;61273.97;4986023;28;20030;-61
2022/02/04 06:24:42;;;;;;;41.83;23.20;;;;;;;-145.63;100.00;61273.97;4984811;28;20027;-61
2022/02/04 06:27:08;;;;;;;41.95;24.08;;;;;;;-145.63;100.00;61273.97;4985987;28;20077;-62
2022/02/04 06:29:34;;;;;;;44.63;23.88;;;;;;;-145.63;100.00;61273.97;4983361;28;20039;-62
2022/02/04 06:32:03;;;;;;;45.80;25.63;;;;;;;-145.63;100.00;61273.97;4984373;28;20035;-61
2022/02/04 06:34:28;;;;;;;51.03;26.90;;;;;;;-145.63;100.00;61273.97;4967074;28;20038;-61
2022/02/04 06:36:54;;;;;;;45.95;25.83;;;;;;;-145.63;100.00;61273.97;4983803;28;20035;-61
2022/02/04 06:39:20;;;;;;;50.47;27.33;;;;;;;-145.63;100.00;61273.97;4967898;28;20185;-61
2022/02/04 06:41:46;;;;;;;47.05;26.52;;;;;;;-145.63;100.00;61273.97;4984954;28;20042;-61
2022/02/04 06:44:12;;;;;;;47.85;25.25;;;;;;;-145.63;100.00;61273.97;4985555;28;20030;-61
2022/02/04 06:46:38;;;;;;;45.08;25.08;;;;;;;-145.63;100.00;61273.97;4985807;28;20038;-62
2022/02/04 06:49:03;;;;;;;51.80;27.48;;;;;;;-145.63;100.00;61273.97;4981711;28;20334;-61
2022/02/04 06:51:29;;;;;;;48.55;28.05;;;;;;;-145.63;100.00;61273.97;4970575;28;20054;-63
2022/02/04 06:53:54;;;;;;;51.08;27.75;;;;;;;-145.63;100.00;61273.97;4984067;28;20054;-61
2022/02/04 06:56:20;;;;;;;50.75;27.70;;;;;;;-145.63;100.00;61273.97;4985692;28;20085;-61
2022/02/04 06:58:45;;;;;;;47.97;25.30;;;;;;;-145.63;100.00;61273.97;4984613;28;20061;-61
2022/02/04 07:01:11;;;;;;;46.60;26.88;;;;;;;-145.63;100.00;61273.97;4985866;28;20146;-61
2022/02/04 07:03:36;;;;;;;56.38;28.88;;;;;;;-145.63;100.00;61273.97;4980007;28;20219;-60
2022/02/04 07:06:04;;;;;;;48.97;25.88;;;;;;;-145.63;100.00;61273.97;4982351;28;20050;-60
2022/02/04 07:08:43;;;;;;;47.28;25.13;;;;;;;-145.63;100.00;61273.97;4985428;28;20045;-60
2022/02/04 07:14:44;;;;;;;46.65;26.10;;;;;;;-145.63;100.00;61273.97;4965562;28;20042;-59
2022/02/04 07:19:47;;;;;;;45.92;25.67;;;;;;;-145.63;100.00;61273.97;4985109;28;20083;-61
2022/02/04 07:22:34;;;;;;;42.38;25.52;;;;;;;-145.63;100.00;61273.97;4983981;28;20022;-61
2022/02/04 07:25:03;;;;;;;49.35;26.05;;;;;;;-145.63;100.00;61273.97;4985038;28;20042;-60
2022/02/04 07:27:30;;;;;;;46.13;25.67;;;;;;;-145.63;100.00;61273.97;4984826;28;20033;-59
2022/02/04 07:29:56;;;;;;;45.08;24.95;;;;;;;-145.63;100.00;61273.97;4984810;28;20098;-59
2022/02/04 07:32:36;;;;;;;45.78;26.02;;;;;;;-145.63;100.00;61273.97;4984375;28;20027;-60
2022/02/04 07:40:55;;;;;;;47.40;25.48;;;;;;;-145.63;100.00;61273.97;4984475;28;20027;-61
2022/02/04 07:43:22;;;;;;;44.00;25.42;;;;;;;-145.63;100.00;61273.97;4984413;28;20237;-61
2022/02/04 07:45:48;;;;;;;40.05;24.23;;;;;;;-145.63;100.00;61273.97;4984818;28;20047;-61
2022/02/04 07:48:14;;;;;;;45.33;25.00;;;;;;;-145.63;100.00;61273.97;4984893;28;20054;-62
2022/02/04 07:50:39;;;;;;;46.85;25.70;;;;;;;-145.63;100.00;61273.97;4985073;28;20112;-61
2022/02/04 07:53:05;;;;;;;45.78;23.70;;;;;;;-145.63;100.00;61273.97;4983969;28;20027;-61
2022/02/04 07:55:30;;;;;;;45.17;25.33;;;;;;;-145.63;100.00;61273.97;4984353;28;20327;-61
2022/02/04 07:57:56;;;;;;;38.95;23.23;;;;;;;-145.63;100.00;61273.97;4984831;28;20200;-60
2022/02/04 08:00:22;;;;;;;42.65;24.48;;;;;;;-145.63;100.00;61273.97;4984753;28;20429;-61
2022/02/04 08:02:48;;;;;;;53.10;29.65;;;;;;;-145.63;100.00;61273.97;4984727;28;20031;-60
2022/02/04 08:05:18;;;;;;;40.53;23.52;;;;;;;-145.63;100.00;61273.97;4984353;28;20268;-60
2022/02/04 08:07:52;;;;;;;39.75;23.52;;;;;;;-145.63;100.00;61273.97;4984504;28;20342;-60
2022/02/04 08:21:20;;;;;;;35.17;22.42;;;;;;;-145.63;100.00;61273.97;4983836;28;20341;-61
2022/02/04 08:37:44;;;;;;;35.95;21.20;;;;;;;-145.63;100.00;61273.97;4983581;28;20026;-61
2022/02/04 08:56:00;;;;;;;36.03;19.92;;;;;;;-145.63;100.00;61273.97;4983334;28;20037;-61
2022/02/04 08:58:45;;;;;;;33.72;20.75;;;;;;;-145.63;100.00;61273.97;4983879;28;20139;-61
2022/02/04 09:01:25;;;;;;;34.90;20.48;;;;;;;-145.63;100.00;61273.97;4973341;28;20317;-62
2022/02/04 09:04:02;;;;;;;37.47;20.42;;;;;;;-145.63;100.00;61273.97;4983296;28;20098;-62
2022/02/04 09:06:35;;;;;;;35.10;21.50;;;;;;;-145.63;100.00;61273.97;4983333;28;20085;-61
2022/02/04 09:09:01;;;;;;;34.42;20.60;;;;;;;-145.63;100.00;61273.97;4983257;28;20038;-59
2022/02/04 09:19:18;;;;;;;38.13;19.77;;;;;;;-145.63;100.00;61273.97;4983508;28;20043;-61
2022/02/04 09:24:11;;;;;;;38.60;21.52;;;;;;;-145.63;100.00;61273.97;4986313;28;20038;-63
2022/02/04 09:26:39;;;;;;;35.95;22.00;;;;;;;-145.63;100.00;61273.97;4984829;28;20065;-62
2022/02/04 09:29:05;;;;;;;34.45;20.38;;;;;;;-145.63;100.00;61273.97;4987676;28;20043;-61
2022/02/04 09:31:31;;;;;;;36.78;20.25;;;;;;;-145.63;100.00;61273.97;4987727;28;20054;-62
2022/02/04 09:33:56;;;;;;;33.03;19.63;;;;;;;-145.63;100.00;61273.97;4987380;28;20342;-61
2022/02/04 09:36:22;;;;;;;33.28;20.52;;;;;;;-145.63;100.00;61273.97;4987259;28;20084;-62
2022/02/04 09:38:47;;;;;;;34.47;21.23;;;;;;;-145.63;100.00;61273.97;4987633;28;20030;-62
2022/02/04 09:41:13;;;;;;;37.85;21.60;;;;;;;-145.63;100.00;61273.97;4987553;28;20038;-62
2022/02/04 09:43:39;;;;;;;38.97;22.52;;;;;;;-145.63;100.00;61273.97;4987247;28;20323;-61
2022/02/04 09:46:07;;;;;;;35.13;21.13;;;;;;;-145.63;100.00;61273.97;4986612;28;20037;-62
2022/02/04 09:48:32;;;;;;;35.67;19.98;;;;;;;-145.63;100.00;61273.97;4986027;28;20031;-62
2022/02/04 09:51:00;;;;;;;36.10;20.60;;;;;;;-145.63;100.00;61273.97;4987210;28;20129;-62
2022/02/04 10:21:09;;;;;;;25.85;16.20;;;;;;;-145.63;100.00;61273.97;4986686;28;20045;-62
2022/02/04 10:23:50;;;;;;;29.63;16.05;;;;;;;-145.63;100.00;61273.97;4979065;28;20031;-63
2022/02/04 10:26:17;;;;;;;30.90;17.23;;;;;;;-145.63;100.00;61273.97;4985840;28;20026;-64
2022/02/04 10:28:43;;;;;;;29.25;16.30;;;;;;;-145.63;100.00;61273.97;4983762;28;20045;-62
2022/02/04 10:31:22;;;;;;;31.85;19.08;;;;;;;-145.63;100.00;61273.97;4981360;28;20275;-62
2022/02/04 10:34:05;;;;;;;26.45;14.55;;;;;;;-145.63;100.00;61273.97;4974711;28;20219;-62
2022/02/04 10:39:52;;;;;;;22.95;14.23;;;;;;;-145.63;100.00;61273.97;4987730;28;20318;-62
2022/02/04 10:45:16;;;;;;;23.35;14.35;;;;;;;-145.63;100.00;61273.97;4980446;28;20096;-63
2022/02/04 10:57:00;;;;;;;28.05;15.65;;;;;;;-145.63;100.00;61273.97;4985557;28;20050;-62
2022/02/04 11:04:52;;;;;;;25.05;13.85;;;;;;;-145.63;100.00;61273.97;4985726;28;20038;-61
2022/02/04 11:07:46;;;;;;;24.08;14.38;;;;;;;-145.63;100.00;61273.97;4986040;28;20046;-60
2022/02/04 11:10:21;;;;;;;24.00;14.43;;;;;;;-145.63;100.00;61273.97;4969915;28;20061;-62
2022/02/04 11:52:45;;;;;;;18.70;11.00;;;;;;;-145.63;100.00;61273.97;4984992;28;20024;-61
2022/02/04 11:55:10;;;;;;;17.65;10.73;;;;;;;-145.63;100.00;61273.97;4984667;28;20057;-62
2022/02/04 11:57:38;;;;;;;18.55;11.23;;;;;;;-145.63;100.00;61273.97;4985130;28;20030;-63
2022/02/04 12:00:17;;;;;;;20.63;11.52;;;;;;;-145.63;100.00;61273.97;4984835;28;20204;-61
2022/02/04 12:02:45;;;;;;;16.73;11.48;;;;;;;-145.63;100.00;61273.97;4984810;28;20026;-62
2022/02/04 12:05:11;;;;;;;15.40;9.50;;;;;;;-145.63;100.00;61273.97;4984206;28;20070;-61
2022/02/04 12:07:43;;;;;;;16.15;9.70;;;;;;;-145.63;100.00;61273.97;4996476;28;20035;-60
2022/02/04 12:10:11;;;;;;;17.88;10.18;;;;;;;-145.63;100.00;61273.97;4973789;28;20110;-59
2022/02/04 12:13:14;;;;;;;16.83;10.85;;;;;;;-145.63;100.00;61273.97;4984297;28;20291;-60
2022/02/04 12:15:46;;;;;;;15.38;9.52;;;;;;;-145.63;100.00;61273.97;4974656;28;20113;-59
2022/02/04 12:18:15;;;;;;;16.83;10.38;;;;;;;-145.63;100.00;61273.97;4973287;28;20023;-61
2022/02/04 12:20:51;;;;;;;15.18;8.63;;;;;;;-145.63;100.00;61273.97;4984182;28;20057;-59
2022/02/04 12:23:25;;;;;;;17.75;10.68;;;;;;;-145.63;100.00;61273.97;4984318;28;20090;-59
2022/02/04 12:26:09;;;;;;;21.27;11.15;;;;;;;-145.63;100.00;61273.97;4983959;28;20022;-60
2022/02/04 12:28:51;;;;;;;20.98;12.15;;;;;;;-145.63;100.00;61273.97;4979848;28;20022;-60
2022/02/04 12:31:24;;;;;;;;;;;;;;;-145.63;100.00;61273.97;4976782;28;20049;-60
2022/02/04 12:33:59;;;;;;;18.60;11.63;;;;;;;-145.63;100.00;61273.97;4992589;28;19910;-60
2022/02/04 12:36:35;;;;;;;21.48;13.10;;;;;;;-145.63;100.00;61273.97;4979362;28;20054;-59
2022/02/04 12:39:12;;;;;;;18.73;11.55;;;;;;;-145.63;100.00;61273.97;4999423;28;20102;-60
2022/02/04 12:41:47;;;;;;;24.17;12.75;;;;;;;-145.63;100.00;61273.97;4983532;28;20031;-61
2022/02/04 12:44:19;;;;;;;16.92;11.07;;;;;;;-145.63;100.00;61273.97;4999248;28;20092;-60
2022/02/04 12:46:47;;;;;;;20.00;12.32;;;;;;;-145.63;100.00;61273.97;4983883;28;20158;-62
2022/02/04 12:49:16;;;;;;;23.08;13.52;;;;;;;-145.63;100.00;61273.97;4983941;28;20037;-60
2022/02/04 12:51:56;;;;;;;21.50;12.73;;;;;;;-145.63;100.00;61273.97;4983963;28;20147;-59
2022/02/04 12:54:35;;;;;;;21.33;13.90;;;;;;;-145.63;100.00;61273.97;4983915;28;20046;-60
2022/02/04 12:57:27;;;;;;;22.95;13.60;;;;;;;-145.63;100.00;61273.97;4983631;28;20035;-62
2022/02/04 13:10:25;;;;;;;23.02;14.15;;;;;;;-145.63;100.00;61273.97;4983723;28;20038;-60
2022/02/04 13:13:00;;;;;;;26.80;13.98;;;;;;;-145.63;100.00;61273.97;4983548;28;20097;-60
2022/02/04 13:15:31;;;;;;;26.25;14.13;;;;;;;-145.63;100.00;61273.97;4983653;28;20037;-62
2022/02/04 13:17:58;;;;;;;20.33;12.80;;;;;;;-145.63;100.00;61273.97;4983833;28;20082;-61
2022/02/04 13:20:25;;;;;;;23.00;13.65;;;;;;;-145.63;100.00;61273.97;4983695;28;20027;-61
2022/02/04 13:22:58;;;;;;;24.95;14.27;;;;;;;-145.63;100.00;61273.97;4983433;28;20212;-62
2022/02/04 13:25:30;;;;;;;25.88;15.13;;;;;;;-145.63;100.00;61273.97;4983386;28;20065;-61
2022/02/04 13:28:02;;;;;;;23.92;14.05;;;;;;;-145.63;100.00;61273.97;4983725;28;20090;-62
2022/02/04 13:30:31;;;;;;;27.48;14.20;;;;;;;-145.63;100.00;61273.97;4983674;28;20038;-64
2022/02/04 13:32:57;;;;;;;20.95;13.30;;;;;;;-145.63;100.00;61273.97;4982028;28;20030;-62
2022/02/04 13:35:24;;;;;;;21.92;12.70;;;;;;;-145.63;100.00;61273.97;4983538;28;20035;-60
2022/02/04 13:37:51;;;;;;;21.60;13.68;;;;;;;-145.63;100.00;61273.97;4982505;28;20026;-65
2022/02/04 13:40:25;;;;;;;20.77;13.23;;;;;;;-145.63;100.00;61273.97;5014598;28;20039;-61
2022/02/04 13:42:54;;;;;;;21.02;12.93;;;;;;;-145.63;100.00;61273.97;4983141;28;20034;-61
2022/02/04 13:45:41;;;;;;;26.00;14.52;;;;;;;-145.63;100.00;61273.97;4983095;28;20041;-62
2022/02/04 13:48:25;;;;;;;31.20;17.83;;;;;;;-145.63;100.00;61273.97;4982865;28;20342;-62
2022/02/04 13:51:43;;;;;;;23.35;14.30;;;;;;;-145.63;100.00;61273.97;4983158;28;20069;-62
2022/02/04 13:54:00;;;;;;;25.15;13.20;;;;;;;-145.63;100.00;61273.97;4979259;28;20058;-61
2022/02/04 13:56:50;;;;;;;21.13;12.00;;;;;;;-145.63;100.00;61273.97;4983184;28;20045;-61
2022/02/04 13:59:28;;;;;;;17.95;11.18;;;;;;;-145.63;100.00;61273.97;4983032;28;20094;-61
2022/02/04 14:02:13;;;;;;;20.58;11.88;;;;;;;-145.63;100.00;61273.97;4983309;28;20125;-62
2022/02/04 14:04:52;;;;;;;21.63;11.70;;;;;;;-145.63;100.00;61273.97;4983160;28;20059;-60
2022/02/04 14:07:20;;;;;;;18.85;11.68;;;;;;;-145.63;100.00;61273.97;4978253;28;20046;-61
2022/02/04 14:09:54;;;;;;;19.63;10.88;;;;;;;-145.63;100.00;61273.97;4984780;28;20038;-61
2022/02/04 14:12:20;;;;;;;21.40;11.27;;;;;;;-145.63;100.00;61273.97;4986568;28;20081;-62
2022/02/04 14:14:57;;;;;;;17.83;10.30;;;;;;;-145.63;100.00;61273.97;4986841;28;20018;-63
2022/02/04 14:17:31;;;;;;;18.63;10.52;;;;;;;-145.63;100.00;61273.97;4986870;28;20034;-60
2022/02/04 14:19:57;;;;;;;19.60;10.27;;;;;;;-145.63;100.00;61273.97;4982178;28;20051;-60
2022/02/04 14:22:22;;;;;;;20.60;10.93;;;;;;;-145.63;100.00;61273.97;4976248;28;20331;-62
2022/02/04 14:24:49;;;;;;;19.58;11.00;;;;;;;-145.63;100.00;61273.97;4975779;28;20270;-61
2022/02/04 14:27:15;;;;;;;17.50;10.18;;;;;;;-145.63;100.00;61273.97;4986756;28;20031;-60
2022/02/04 14:29:57;;;;;;;15.90;10.90;;;;;;;-145.63;100.00;61273.97;4986319;28;20022;-61
2022/02/04 14:32:27;;;;;;;17.67;10.23;;;;;;;-145.63;100.00;61273.97;4986490;28;20421;-61
2022/02/04 14:54:01;;;;;;;21.67;12.90;;;;;;;-145.63;100.00;61273.97;4995170;28;20046;-61
2022/02/04 15:01:59;;;;;;;19.88;12.70;;;;;;;-145.63;100.00;61273.97;4986095;28;20076;-63
2022/02/04 15:04:49;;;;;;;16.60;11.30;;;;;;;-145.63;100.00;61273.97;4985573;28;20082;-62
2022/02/04 15:07:12;;;;;;;18.17;11.32;;;;;;;-145.63;100.00;61273.97;4985993;28;20071;-61
2022/02/04 15:09:44;;;;;;;21.67;11.25;;;;;;;-145.63;100.00;61273.97;4986150;28;20394;-61
2022/02/04 15:12:09;;;;;;;18.02;11.70;;;;;;;-145.63;100.00;61273.97;4985890;28;20034;-63
2022/02/04 15:14:35;;;;;;;17.50;10.35;;;;;;;-145.63;100.00;61273.97;4985862;28;20033;-62
2022/02/04 15:17:00;;;;;;;21.35;11.52;;;;;;;-145.63;100.00;61273.97;4985576;28;20370;-62
2022/02/04 15:19:31;;;;;;;16.98;11.02;;;;;;;-145.63;100.00;61273.97;5000264;28;20034;-62
2022/02/04 15:21:57;;;;;;;16.80;10.80;;;;;;;-145.63;100.00;61273.97;4985470;28;20038;-61
2022/02/04 15:24:22;;;;;;;19.50;11.57;;;;;;;-145.63;100.00;61273.97;4985658;28;20315;-62
2022/02/04 15:26:48;;;;;;;21.85;11.35;;;;;;;-145.63;100.00;61273.97;4984383;28;20027;-62
2022/02/04 15:29:17;;;;;;;17.27;10.98;;;;;;;-145.63;100.00;61273.97;4985658;28;20243;-62
2022/02/04 15:31:55;;;;;;;18.30;11.43;;;;;;;-145.63;100.00;61273.97;4985225;28;20081;-62
2022/02/04 15:34:23;;;;;;;17.13;9.80;;;;;;;-145.63;100.00;61273.97;4974540;28;20054;-61
2022/02/04 15:36:49;;;;;;;18.23;10.32;;;;;;;-145.63;100.00;61273.97;4984970;28;20219;-61
2022/02/04 15:39:21;;;;;;;15.60;9.43;;;;;;;-145.63;100.00;61273.97;4985373;28;20043;-62
2022/02/04 15:41:48;;;;;;;16.40;10.55;;;;;;;-145.63;100.00;61273.97;4984523;28;20026;-61
2022/02/04 15:52:25;;;;;;;17.80;11.23;;;;;;;-145.63;100.00;61273.97;4984982;28;20030;-62
2022/02/04 16:05:11;;;;;;;18.08;10.98;;;;;;;-145.63;100.00;61273.97;4984459;28;20039;-61
2022/02/04 16:07:38;;;;;;;17.80;10.85;;;;;;;-145.63;100.00;61273.97;4984563;28;20023;-60
2022/02/04 16:12:51;;;;;;;21.15;12.48;;;;;;;-145.63;100.00;61273.97;4984529;28;20346;-62
2022/02/04 16:17:57;;;;;;;19.48;11.57;;;;;;;-145.63;100.00;61273.97;4984634;28;20085;-61
2022/02/04 16:20:49;;;;;;;19.13;11.95;;;;;;;-145.63;100.00;61273.97;4983146;28;20046;-64
2022/02/04 16:23:21;;;;;;;21.65;12.48;;;;;;;-145.63;100.00;61273.97;4984712;28;20085;-63
2022/02/04 16:31:03;;;;;;;24.92;15.10;;;;;;;-145.63;100.00;61273.97;4983461;28;20030;-62
2022/02/04 16:33:28;;;;;;;22.17;14.05;;;;;;;-145.63;100.00;61273.97;4978355;28;20035;-62
2022/02/04 16:36:02;;;;;;;25.38;14.10;;;;;;;-145.63;100.00;61273.97;4984042;28;20065;-62
2022/02/04 16:38:28;;;;;;;21.83;14.35;;;;;;;-145.63;100.00;61273.97;4984274;28;20034;-63
2022/02/04 16:40:56;;;;;;;22.13;14.25;;;;;;;-145.63;100.00;61273.97;4983950;28;20041;-62
2022/02/04 16:43:22;;;;;;;25.55;15.07;;;;;;;-145.63;100.00;61273.97;4983906;28;20113;-64
2022/02/04 16:45:49;;;;;;;20.50;13.00;;;;;;;-145.63;100.00;61273.97;4999644;28;20130;-64
2022/02/04 16:48:15;;;;;;;20.77;13.07;;;;;;;-145.63;100.00;61273.97;4984446;28;20357;-62
2022/02/04 16:50:43;;;;;;;20.88;13.32;;;;;;;-145.63;100.00;61273.97;4984139;28;20054;-62
2022/02/04 16:53:09;;;;;;;20.83;13.07;;;;;;;-145.63;100.00;61273.97;4983801;28;20291;-63
2022/02/04 16:55:35;;;;;;;20.25;12.90;;;;;;;-145.63;100.00;61273.97;4984008;28;20022;-62
2022/02/04 16:58:00;;;;;;;21.00;13.20;;;;;;;-145.63;100.00;61273.97;4999446;28;20023;-63
2022/02/04 17:00:27;;;;;;;17.95;11.75;;;;;;;-145.63;100.00;61273.97;4970860;28;20089;-63
2022/02/04 17:02:57;;;;;;;19.60;12.95;;;;;;;-145.63;100.00;61273.97;4983312;28;20070;-61
2022/02/04 17:05:25;;;;;;;19.90;12.85;;;;;;;-145.63;100.00;61273.97;4983914;28;20034;-62
2022/02/04 17:07:57;;;;;;;21.80;12.52;;;;;;;-145.63;100.00;61273.97;4983721;28;20042;-62
2022/02/04 17:10:32;;;;;;;;;;;;;;;-145.63;100.00;61273.97;4984268;28;20034;-62
2022/02/04 17:13:01;;;;;;;20.05;12.63;;;;;;;-145.63;100.00;61273.97;4983691;28;19909;-62
2022/02/04 17:15:32;;;;;;;22.15;12.80;;;;;;;-145.63;100.00;61273.97;4983781;28;20238;-64
2022/02/04 17:18:00;;;;;;;21.98;12.77;;;;;;;-145.63;100.00;61273.97;4983852;28;20019;-62
2022/02/04 17:20:27;;;;;;;21.42;13.48;;;;;;;-145.63;100.00;61273.97;4983451;28;20026;-63
2022/02/04 17:22:53;;;;;;;20.42;13.43;;;;;;;-145.63;100.00;61273.97;4983747;28;20316;-61
2022/02/04 17:25:26;;;;;;;20.60;13.80;;;;;;;-145.63;100.00;61273.97;4983417;28;20123;-62
2022/02/04 17:27:53;;;;;;;24.75;13.38;;;;;;;-145.63;100.00;61273.97;4978924;28;20033;-61